Time;durP1;ratioP1;P1;durP2;ratioP2;P2;SDS_P1;SDS_P2;PMS_P1;PMS_P2;Temp;Humidity;BMP_temperature;BMP_pressure;BME280_temperature;BME280_humidity;BME280_pressure;Samples;Min_cycle;Max_cycle;Signal;HPM_P1;HPM_P2
2021/01/11 00:01:01;;;;;;;37.83;22.37;;;;;;;3.05;91.45;102246.25;5018334;28;20432;-80
2021/01/11 00:03:27;;;;;;;41.13;22.80;;;;;;;3.07;91.59;102234.56;5017365;28;20277;-80
2021/01/11 00:05:52;;;;;;;42.13;23.40;;;;;;;3.00;91.39;102232.31;5022892;28;20068;-80
2021/01/11 00:08:17;;;;;;;44.20;24.58;;;;;;;3.06;91.24;102235.31;5020230;28;20355;-78
2021/01/11 00:10:43;;;;;;;43.03;24.00;;;;;;;3.09;90.84;102227.94;5021042;28;20025;-80
2021/01/11 00:13:08;;;;;;;46.13;24.38;;;;;;;3.05;91.25;102223.41;5026940;28;20040;-80
2021/01/11 00:15:33;;;;;;;43.63;23.97;;;;;;;3.08;91.28;102218.56;5027176;28;20113;-80
2021/01/11 00:17:58;;;;;;;41.93;23.97;;;;;;;3.07;91.25;102216.78;5020764;28;20292;-80
2021/01/11 00:20:24;;;;;;;48.57;26.23;;;;;;;2.99;91.51;102215.31;5018569;28;20081;-80
2021/01/11 00:22:49;;;;;;;46.30;24.63;;;;;;;2.97;91.55;102211.78;5016237;28;20025;-80
2021/01/11 00:25:14;;;;;;;51.27;27.03;;;;;;;2.98;91.49;102208.47;5021523;28;20116;-80
2021/01/11 00:27:41;;;;;;;50.38;26.92;;;;;;;2.95;91.59;102208.25;5023507;28;20029;-81
2021/01/11 00:30:07;;;;;;;;;;;;;;;2.92;91.63;102212.19;5023762;28;20036;-81
2021/01/11 00:32:33;;;;;;;51.03;26.40;;;;;;;3.04;91.53;102208.94;5030125;28;19924;-81
2021/01/11 00:34:58;;;;;;;53.87;28.30;;;;;;;2.97;91.66;102211.78;5023923;28;20377;-81
2021/01/11 00:37:24;;;;;;;55.73;28.27;;;;;;;2.91;91.62;102206.22;5021272;28;20037;-81
2021/01/11 00:39:49;;;;;;;59.17;30.47;;;;;;;2.87;92.04;102199.16;5014457;28;20339;-80
2021/01/11 00:42:15;;;;;;;56.93;29.87;;;;;;;2.87;92.40;102201.69;5021642;28;20021;-79
2021/01/11 00:44:40;;;;;;;58.28;31.23;;;;;;;2.88;92.39;102210.19;5015364;28;20307;-81
2021/01/11 00:47:06;;;;;;;58.63;30.57;;;;;;;2.94;92.37;102206.47;5024218;28;20097;-79
2021/01/11 00:49:31;;;;;;;58.78;29.77;;;;;;;2.93;92.25;102202.19;5020695;28;20032;-81
2021/01/11 00:51:56;;;;;;;62.93;30.03;;;;;;;2.95;92.08;102194.69;5022280;28;20040;-77
2021/01/11 00:54:22;;;;;;;66.57;30.93;;;;;;;2.92;92.13;102205.44;5023048;28;20284;-80
2021/01/11 00:56:48;;;;;;;58.63;31.07;;;;;;;2.94;92.05;102203.94;5020769;28;20275;-80
2021/01/11 00:59:13;;;;;;;60.15;31.13;;;;;;;2.91;92.16;102206.22;5021912;28;20029;-79
2021/01/11 01:01:47;;;;;;;60.22;31.38;;;;;;;2.86;92.62;102193.97;5019091;28;20032;-79
2021/01/11 01:04:12;;;;;;;58.00;30.77;;;;;;;2.94;92.16;102190.38;5014534;28;20447;-80
2021/01/11 01:06:37;;;;;;;58.40;31.38;;;;;;;2.90;92.32;102188.34;5022201;28;20055;-80
2021/01/11 01:09:03;;;;;;;59.00;30.60;;;;;;;2.93;92.28;102194.56;5023429;28;20026;-79
2021/01/11 01:11:29;;;;;;;60.10;31.77;;;;;;;2.92;92.31;102182.59;5022977;28;20697;-79
2021/01/11 01:13:55;;;;;;;63.87;31.90;;;;;;;2.94;92.61;102181.09;5027560;28;20026;-79
2021/01/11 01:16:27;;;;;;;61.58;31.52;;;;;;;2.91;92.38;102180.84;5028659;28;20029;-82
2021/01/11 01:18:53;;;;;;;61.87;32.27;;;;;;;2.93;92.30;102181.00;5028283;28;20033;-82
2021/01/11 01:21:19;;;;;;;63.70;32.13;;;;;;;2.89;92.57;102186.56;5025383;28;20028;-80
2021/01/11 01:23:44;;;;;;;61.25;33.70;;;;;;;2.91;92.95;102192.66;5029464;28;20034;-81
2021/01/11 01:26:09;;;;;;;62.47;33.67;;;;;;;2.95;92.90;102187.94;5026556;28;20022;-82
2021/01/11 01:28:34;;;;;;;63.20;33.33;;;;;;;2.91;92.35;102190.09;5024878;28;20276;-81
2021/01/11 01:31:00;;;;;;;61.67;30.17;;;;;;;3.04;91.98;102186.09;5027247;28;20271;-81
2021/01/11 01:33:25;;;;;;;62.67;31.50;;;;;;;3.00;91.96;102176.47;5019389;28;20108;-81
2021/01/11 01:35:50;;;;;;;68.77;34.13;;;;;;;2.97;92.09;102180.44;5018532;28;20017;-82
2021/01/11 01:38:15;;;;;;;61.80;32.53;;;;;;;2.97;92.18;102183.88;5024663;28;20363;-80
2021/01/11 01:40:45;;;;;;;66.30;33.60;;;;;;;3.01;91.95;102173.16;5017072;28;20029;-82
2021/01/11 01:43:10;;;;;;;66.63;32.73;;;;;;;3.00;92.05;102176.47;5017600;28;20701;-80
2021/01/11 01:45:35;;;;;;;66.55;35.35;;;;;;;3.00;92.38;102173.94;5026873;28;20018;-80
2021/01/11 01:48:01;;;;;;;61.10;31.53;;;;;;;2.99;92.32;102183.97;5026658;28;20084;-80
2021/01/11 01:50:26;;;;;;;69.07;34.70;;;;;;;2.88;92.36;102177.19;5027082;28;20292;-82
2021/01/11 01:52:52;;;;;;;68.18;35.63;;;;;;;2.92;92.60;102169.91;5023877;28;20283;-80
2021/01/11 01:55:18;;;;;;;67.47;35.10;;;;;;;2.91;92.73;102168.16;5023178;28;20487;-82
2021/01/11 01:57:43;;;;;;;64.50;33.72;;;;;;;2.94;92.61;102168.41;5020232;28;20037;-81
2021/01/11 02:00:11;;;;;;;72.10;35.08;;;;;;;3.00;92.28;102166.31;5018191;28;20518;-81
2021/01/11 02:02:36;;;;;;;61.97;33.20;;;;;;;2.93;92.44;102161.56;5028955;28;20025;-81
2021/01/11 02:05:02;;;;;;;67.78;33.97;;;;;;;2.99;92.21;102153.53;5025889;28;20040;-80
2021/01/11 02:07:32;;;;;;;70.75;35.67;;;;;;;2.95;92.68;102154.94;5016843;28;20024;-80
2021/01/11 02:10:16;;;;;;;69.20;35.10;;;;;;;2.93;92.66;102166.66;5016537;28;20044;-79
2021/01/11 02:13:18;;;;;;;61.27;32.03;;;;;;;2.95;92.44;102175.25;5024641;28;20025;-79
2021/01/11 02:15:54;;;;;;;71.33;35.97;;;;;;;2.92;92.69;102164.84;5021299;28;20500;-79
2021/01/11 02:18:47;;;;;;;68.68;35.17;;;;;;;2.96;92.65;102164.34;5018288;28;20036;-79
2021/01/11 02:21:37;;;;;;;65.87;34.57;;;;;;;3.01;92.36;102160.47;5029019;28;21006;-79
2021/01/11 02:24:11;;;;;;;74.87;36.00;;;;;;;2.97;92.81;102150.88;5048362;28;20039;-80
2021/01/11 02:27:02;;;;;;;70.40;35.13;;;;;;;3.00;92.50;102143.47;5047843;28;20083;-81
2021/01/11 02:30:12;;;;;;;73.57;36.37;;;;;;;2.97;92.85;102150.00;5020354;28;20399;-79
2021/01/11 02:32:43;;;;;;;76.47;37.07;;;;;;;2.97;93.02;102140.72;4998945;28;20048;-80
2021/01/11 02:35:11;;;;;;;70.73;35.70;;;;;;;3.05;92.85;102149.78;5021967;28;20394;-81
2021/01/11 02:37:39;;;;;;;77.27;37.13;;;;;;;3.00;92.82;102146.03;5020623;28;20065;-80
2021/01/11 02:40:06;;;;;;;84.03;38.20;;;;;;;3.07;92.92;102142.28;5041894;28;20151;-79
2021/01/11 02:42:32;;;;;;;79.87;37.53;;;;;;;3.03;92.72;102136.09;5023444;28;20045;-80
2021/01/11 02:44:57;;;;;;;75.63;38.67;;;;;;;3.04;92.58;102137.88;5022068;28;20069;-80
2021/01/11 02:47:29;;;;;;;73.65;37.72;;;;;;;3.00;92.70;102138.41;5022053;28;20049;-78
2021/01/11 02:49:58;;;;;;;81.20;38.37;;;;;;;2.97;92.94;102137.28;5025930;28;20032;-79
2021/01/11 02:52:51;;;;;;;77.43;38.23;;;;;;;3.04;93.04;102135.31;5026590;28;20053;-81
2021/01/11 02:55:24;;;;;;;80.17;38.57;;;;;;;3.04;93.16;102144.59;5018665;28;20068;-80
2021/01/11 02:58:04;;;;;;;90.60;39.87;;;;;;;3.06;93.30;102146.47;5030622;28;20041;-82
2021/01/11 03:00:36;;;;;;;82.57;39.30;;;;;;;3.02;92.82;102144.47;5041400;23;20042;-80
2021/01/11 03:03:05;;;;;;;85.43;40.23;;;;;;;3.03;93.13;102150.44;5009258;28;20030;-79
2021/01/11 03:05:31;;;;;;;80.07;37.90;;;;;;;2.99;92.89;102149.34;5003995;28;20101;-80
2021/01/11 03:07:57;;;;;;;85.78;38.17;;;;;;;3.03;93.02;102140.28;5027690;28;20109;-79
2021/01/11 03:10:22;;;;;;;79.90;37.38;;;;;;;3.02;93.11;102143.59;5011466;28;20026;-79
2021/01/11 03:12:48;;;;;;;87.10;38.75;;;;;;;2.99;92.94;102144.25;5009194;28;20025;-79
2021/01/11 03:15:14;;;;;;;94.90;42.60;;;;;;;2.99;93.19;102145.91;5012747;28;20027;-78
2021/01/11 03:17:40;;;;;;;92.73;43.20;;;;;;;2.92;93.13;102142.00;5010694;28;20038;-79
2021/01/11 03:20:06;;;;;;;99.27;41.67;;;;;;;2.94;93.42;102132.88;5010276;28;20124;-78
2021/01/11 03:22:31;;;;;;;93.72;41.35;;;;;;;2.97;93.54;102125.50;5010239;28;20344;-80
2021/01/11 03:24:56;;;;;;;98.67;41.90;;;;;;;2.99;93.36;102116.34;5006624;28;20408;-80
2021/01/11 03:27:21;;;;;;;89.77;41.17;;;;;;;3.01;93.05;102116.44;5014187;28;20033;-79
2021/01/11 03:29:47;;;;;;;104.07;42.17;;;;;;;2.94;93.27;102121.84;5006747;28;20285;-80
2021/01/11 03:32:12;;;;;;;94.43;40.03;;;;;;;2.92;93.71;102126.78;5004014;28;20050;-78
2021/01/11 03:34:37;;;;;;;99.07;43.80;;;;;;;3.02;93.53;102126.72;5017685;28;20053;-79
2021/01/11 03:37:03;;;;;;;100.17;43.50;;;;;;;3.04;93.02;102132.78;5006795;28;20281;-79
2021/01/11 03:39:28;;;;;;;88.45;41.35;;;;;;;3.07;93.16;102130.47;5013401;28;20037;-80
2021/01/11 03:41:53;;;;;;;95.97;42.57;;;;;;;3.05;92.99;102132.00;5018405;28;20052;-80
2021/01/11 03:44:19;;;;;;;102.40;41.53;;;;;;;3.01;92.96;102134.22;5012341;28;20026;-80
2021/01/11 03:46:44;;;;;;;90.07;40.30;;;;;;;3.03;93.20;102136.09;5017051;28;20774;-79
2021/01/11 03:49:09;;;;;;;93.50;43.03;;;;;;;3.05;93.29;102138.75;5013742;28;20068;-80
2021/01/11 03:51:34;;;;;;;97.60;43.20;;;;;;;3.04;93.35;102130.25;5005521;28;20323;-79
2021/01/11 03:54:00;;;;;;;85.25;38.97;;;;;;;3.08;93.09;102128.81;5002192;28;20025;-80
2021/01/11 03:56:25;;;;;;;88.30;39.97;;;;;;;3.08;92.89;102117.00;5014105;28;20046;-79
2021/01/11 03:58:50;;;;;;;86.70;39.05;;;;;;;3.04;93.32;102111.59;5010158;28;20022;-79
2021/01/11 04:01:16;;;;;;;85.32;38.72;;;;;;;3.08;93.21;102106.84;5007577;28;20048;-79
2021/01/11 04:03:41;;;;;;;92.65;40.83;;;;;;;3.05;93.08;102104.09;5009737;28;20050;-80
2021/01/11 04:06:07;;;;;;;92.13;41.03;;;;;;;3.07;93.09;102102.53;5013681;28;20032;-80
2021/01/11 04:08:32;;;;;;;87.55;40.42;;;;;;;3.08;92.92;102096.69;5001785;28;20041;-81
2021/01/11 04:10:58;;;;;;;92.13;39.70;;;;;;;3.11;93.11;102093.50;5011121;28;20044;-79
2021/01/11 04:13:23;;;;;;;92.33;40.50;;;;;;;3.17;93.02;102091.41;5013189;28;20392;-79
2021/01/11 04:15:48;;;;;;;88.03;41.33;;;;;;;3.07;92.98;102081.34;5016347;28;20277;-78
2021/01/11 04:18:14;;;;;;;83.78;40.13;;;;;;;3.09;93.03;102075.63;5010947;28;20026;-79
2021/01/11 04:20:39;;;;;;;90.65;40.38;;;;;;;3.12;92.74;102075.84;5005355;28;20044;-79
2021/01/11 04:23:05;;;;;;;87.30;39.85;;;;;;;3.24;92.55;102077.50;5011509;28;20021;-79
2021/01/11 04:25:31;;;;;;;76.88;36.28;;;;;;;3.18;92.87;102064.34;5009293;28;20029;-79
2021/01/11 04:27:59;;;;;;;73.03;37.03;;;;;;;3.20;92.57;102061.16;5004980;28;20041;-79
2021/01/11 04:30:25;;;;;;;75.50;38.20;;;;;;;3.23;92.60;102057.94;5016350;28;20095;-79
2021/01/11 04:32:52;;;;;;;72.27;34.30;;;;;;;3.29;91.96;102058.41;5003696;28;20030;-79
2021/01/11 04:35:18;;;;;;;;;;;;;;;3.25;92.17;102058.94;5020188;28;20775;-80
2021/01/11 04:37:43;;;;;;;68.63;32.75;;;;;;;3.21;92.25;102062.91;5008495;28;19921;-79
2021/01/11 04:40:10;;;;;;;63.40;34.07;;;;;;;3.19;92.55;102066.13;5017046;28;20037;-79
2021/01/11 04:42:47;;;;;;;61.93;31.83;;;;;;;3.24;92.14;102064.78;5010246;28;20284;-80
2021/01/11 04:45:24;;;;;;;57.17;29.90;;;;;;;3.21;92.32;102065.47;5011427;28;20030;-80
2021/01/11 04:47:55;;;;;;;60.60;30.83;;;;;;;3.26;91.62;102058.19;5015627;28;20033;-80
2021/01/11 04:50:21;;;;;;;62.20;31.27;;;;;;;3.28;91.95;102061.72;5012088;28;20033;-80
2021/01/11 04:52:47;;;;;;;54.27;30.03;;;;;;;3.25;91.86;102064.03;5006640;28;20481;-79
2021/01/11 04:55:13;;;;;;;56.30;30.83;;;;;;;3.26;92.18;102060.75;5018516;28;20056;-78
2021/01/11 04:57:49;;;;;;;58.30;31.03;;;;;;;3.26;91.91;102054.00;5004452;28;20037;-82
2021/01/11 05:00:18;;;;;;;65.72;32.33;;;;;;;3.27;91.79;102055.78;5010907;28;20026;-80
2021/01/11 05:02:45;;;;;;;62.43;32.03;;;;;;;3.30;91.60;102050.03;5008870;28;20088;-80
2021/01/11 05:05:10;;;;;;;;;;;;;;;3.32;91.71;102051.03;5010996;28;20030;-79
2021/01/11 05:07:36;;;;;;;57.77;30.83;;;;;;;3.21;91.93;102041.72;5012409;28;19962;-80
2021/01/11 05:10:01;;;;;;;63.97;34.50;;;;;;;3.25;91.82;102041.16;5007783;28;20026;-79
2021/01/11 05:12:27;;;;;;;69.63;34.88;;;;;;;3.27;91.74;102043.06;5013235;28;20281;-79
2021/01/11 05:15:22;;;;;;;65.38;35.38;;;;;;;3.23;91.90;102038.53;5013428;28;20503;-80
2021/01/11 05:17:48;;;;;;;64.47;34.87;;;;;;;3.19;92.45;102036.53;5001971;28;20050;-79
2021/01/11 05:20:23;;;;;;;71.03;35.90;;;;;;;3.24;92.11;102036.88;5007669;28;20124;-79
2021/01/11 05:22:49;;;;;;;68.40;35.07;;;;;;;3.17;92.30;102048.25;5012472;28;20013;-80
2021/01/11 05:25:17;;;;;;;61.23;32.67;;;;;;;3.23;92.10;102043.59;5007884;28;20029;-80
2021/01/11 05:27:44;;;;;;;66.23;35.53;;;;;;;3.15;92.35;102039.63;5013730;28;20052;-80
2021/01/11 05:30:21;;;;;;;65.47;34.97;;;;;;;3.22;92.09;102038.41;5005301;28;20038;-79
2021/01/11 05:32:47;;;;;;;69.03;35.33;;;;;;;3.21;92.37;102031.56;5031474;28;20508;-81
2021/01/11 05:35:12;;;;;;;64.30;33.47;;;;;;;3.18;92.39;102036.44;5011429;28;20033;-80
2021/01/11 05:37:43;;;;;;;58.63;31.17;;;;;;;3.19;92.25;102025.50;5006280;28;20041;-79
2021/01/11 05:40:10;;;;;;;62.10;32.90;;;;;;;3.17;92.19;102025.38;5012692;28;20053;-79
2021/01/11 05:42:38;;;;;;;55.30;30.60;;;;;;;3.20;91.94;102028.16;5010002;28;20026;-80
2021/01/11 05:45:17;;;;;;;53.13;29.83;;;;;;;3.16;92.21;102026.16;5008572;28;20030;-80
2021/01/11 05:48:05;;;;;;;58.23;31.27;;;;;;;3.23;92.18;102022.41;5010834;28;20050;-80
2021/01/11 05:50:36;;;;;;;53.87;30.13;;;;;;;3.18;92.54;102018.66;5006770;28;20065;-79
2021/01/11 05:53:02;;;;;;;56.47;29.27;;;;;;;3.08;92.56;102017.13;5015615;28;20029;-80
2021/01/11 05:55:32;;;;;;;54.38;27.73;;;;;;;3.10;92.72;102016.44;5003459;28;20081;-80
2021/01/11 05:58:03;;;;;;;49.13;27.23;;;;;;;3.24;91.95;102014.00;5018838;28;20545;-80
2021/01/11 06:00:33;;;;;;;51.17;27.90;;;;;;;3.19;91.97;102008.59;5015476;28;20129;-81
2021/01/11 06:02:59;;;;;;;50.40;26.27;;;;;;;3.13;92.25;102003.09;5007795;28;20041;-81
2021/01/11 06:05:25;;;;;;;41.73;24.10;;;;;;;3.18;91.95;101995.81;5013857;28;20037;-80
2021/01/11 06:07:50;;;;;;;;;;;;;;;3.16;92.38;101995.69;5010139;28;20516;-80
2021/01/11 06:10:17;;;;;;;41.93;23.17;;;;;;;3.13;92.28;101990.41;5028970;28;19937;-80
2021/01/11 06:12:43;;;;;;;41.30;22.30;;;;;;;3.23;91.98;101976.69;5013621;28;20068;-80
2021/01/11 06:15:11;;;;;;;45.93;25.47;;;;;;;3.17;92.08;101978.81;5011889;28;20102;-79
2021/01/11 06:17:39;;;;;;;39.20;23.80;;;;;;;3.14;92.51;101992.16;5007855;28;20030;-80
2021/01/11 06:20:06;;;;;;;41.73;22.67;;;;;;;3.19;92.48;101985.75;5009923;28;20036;-80
2021/01/11 06:22:46;;;;;;;40.97;23.83;;;;;;;3.12;92.17;101979.38;5004614;28;20089;-79
2021/01/11 06:25:17;;;;;;;42.40;23.47;;;;;;;3.13;92.33;101960.81;5003695;28;20027;-80
2021/01/11 06:27:56;;;;;;;37.23;21.67;;;;;;;3.15;92.54;101966.00;5013703;28;20475;-79
2021/01/11 06:30:33;;;;;;;40.47;22.50;;;;;;;3.13;92.29;101975.16;5022545;28;20030;-80
2021/01/11 06:33:12;;;;;;;35.47;20.63;;;;;;;3.16;92.09;101975.38;5024009;28;20040;-77
2021/01/11 06:35:48;;;;;;;34.27;21.20;;;;;;;3.19;92.04;101975.59;5007251;28;20030;-78
2021/01/11 06:38:26;;;;;;;36.03;20.47;;;;;;;3.19;92.05;101973.06;5009661;28;20029;-77
2021/01/11 06:41:13;;;;;;;40.23;20.07;;;;;;;3.11;92.67;101970.00;5029487;28;20036;-79
2021/01/11 06:43:38;;;;;;;30.75;19.33;;;;;;;3.15;92.50;101957.50;5005490;28;20107;-78
2021/01/11 06:46:04;;;;;;;36.17;18.97;;;;;;;3.13;92.39;101955.75;5003353;28;20034;-78
2021/01/11 06:48:32;;;;;;;33.25;19.00;;;;;;;3.18;92.24;101948.44;5003792;28;20030;-77
2021/01/11 06:51:06;;;;;;;32.67;18.57;;;;;;;3.20;92.09;101951.09;5008955;28;20116;-78
2021/01/11 06:53:31;;;;;;;30.47;17.93;;;;;;;3.19;92.34;101946.78;5009551;28;20049;-78
2021/01/11 06:56:11;;;;;;;34.28;18.55;;;;;;;3.16;92.39;101938.97;5006039;28;20019;-77
2021/01/11 06:58:39;;;;;;;29.33;17.67;;;;;;;3.17;92.53;101946.69;5014664;28;20064;-77
2021/01/11 07:01:09;;;;;;;28.97;17.83;;;;;;;3.17;92.13;101938.19;5011682;28;20033;-77
2021/01/11 07:03:48;;;;;;;33.23;19.27;;;;;;;3.16;92.38;101931.34;5011474;28;20618;-79
2021/01/11 07:06:33;;;;;;;36.77;19.37;;;;;;;3.16;92.20;101927.16;5008879;28;20021;-78
2021/01/11 07:09:02;;;;;;;36.73;20.80;;;;;;;3.15;92.33;101922.84;5001809;28;20025;-77
2021/01/11 07:11:33;;;;;;;32.03;20.80;;;;;;;3.20;91.81;101925.69;5005835;28;20030;-78
2021/01/11 07:13:58;;;;;;;63.87;22.43;;;;;;;3.17;92.19;101925.50;5011768;28;20030;-77
2021/01/11 07:16:41;;;;;;;74.75;25.73;;;;;;;3.12;92.06;101913.34;5013889;28;20057;-78
2021/01/11 07:19:07;;;;;;;36.37;21.67;;;;;;;3.19;91.96;101921.41;5006784;28;21111;-77
2021/01/11 07:21:35;;;;;;;37.28;22.13;;;;;;;3.16;91.72;101918.66;5000825;28;20022;-78
2021/01/11 07:24:01;;;;;;;40.23;20.67;;;;;;;3.15;92.09;101915.22;5007687;28;20044;-79
2021/01/11 07:26:27;;;;;;;;;;;;;;;3.13;91.88;101907.50;5005927;28;20026;-79
2021/01/11 07:28:56;;;;;;;47.40;21.77;;;;;;;3.12;91.75;101910.81;5010621;28;19921;-80
2021/01/11 07:31:30;;;;;;;36.27;20.63;;;;;;;3.09;91.43;101913.16;5011727;28;20088;-77
2021/01/11 07:34:06;;;;;;;78.00;23.33;;;;;;;3.08;91.80;101911.38;5007278;28;20100;-79
2021/01/11 07:36:40;;;;;;;53.42;21.27;;;;;;;3.13;91.70;101914.25;5008490;28;20076;-80
2021/01/11 07:39:29;;;;;;;34.93;20.63;;;;;;;3.13;91.53;101915.13;5004071;28;20088;-80
2021/01/11 07:41:54;;;;;;;51.43;20.50;;;;;;;3.16;91.84;101913.56;5003479;28;20499;-78
2021/01/11 07:44:33;;;;;;;43.70;21.17;;;;;;;3.19;91.78;101908.72;5007912;28;20184;-78
2021/01/11 07:47:00;;;;;;;54.77;21.77;;;;;;;3.12;91.79;101910.81;5010356;28;20021;-79
2021/01/11 07:49:28;;;;;;;35.93;20.20;;;;;;;3.12;91.95;101907.41;5007053;28;20022;-78
2021/01/11 07:52:01;;;;;;;67.17;22.27;;;;;;;3.16;91.65;101908.50;5002129;28;20054;-78
2021/01/11 07:54:26;;;;;;;67.40;22.33;;;;;;;3.15;91.58;101909.28;5010608;28;20036;-78
2021/01/11 07:56:51;;;;;;;44.37;19.40;;;;;;;3.12;91.42;101918.44;5010681;28;20504;-78
2021/01/11 07:59:17;;;;;;;37.00;20.10;;;;;;;3.19;91.82;101918.88;5009273;28;20352;-78
2021/01/11 08:01:45;;;;;;;39.42;18.63;;;;;;;3.19;91.46;101913.78;5006142;28;20033;-78
2021/01/11 08:04:12;;;;;;;35.23;19.70;;;;;;;3.20;91.45;101907.94;5011861;28;20026;-78
2021/01/11 08:06:55;;;;;;;36.07;18.00;;;;;;;3.22;91.54;101919.06;5006634;28;20173;-78
2021/01/11 08:09:26;;;;;;;29.33;18.67;;;;;;;3.22;91.35;101911.47;5008625;28;20487;-77
2021/01/11 08:12:15;;;;;;;31.23;19.50;;;;;;;3.28;91.37;101909.38;5004285;28;20030;-78
2021/01/11 08:14:41;;;;;;;33.30;18.40;;;;;;;3.22;91.29;101903.84;5029171;28;20505;-77
2021/01/11 08:17:11;;;;;;;32.28;18.70;;;;;;;3.18;91.74;101901.88;5004363;28;20404;-78
2021/01/11 08:19:36;;;;;;;31.37;18.53;;;;;;;3.21;91.71;101912.22;5007055;28;20400;-79
2021/01/11 08:22:02;;;;;;;33.75;18.92;;;;;;;3.23;91.81;101905.59;5007378;28;20018;-76
2021/01/11 08:24:28;;;;;;;28.30;18.08;;;;;;;3.25;91.51;101910.03;5008574;28;20032;-78
2021/01/11 08:27:11;;;;;;;28.73;17.27;;;;;;;3.25;91.50;101904.06;5004979;28;20065;-78
2021/01/11 08:29:39;;;;;;;28.50;17.07;;;;;;;3.22;91.66;101898.75;5010477;28;20022;-78
2021/01/11 08:32:12;;;;;;;32.23;18.47;;;;;;;3.21;91.52;101897.00;5003920;28;20025;-79
2021/01/11 08:34:40;;;;;;;28.27;17.53;;;;;;;3.28;91.41;101895.03;5003221;28;20097;-79
2021/01/11 08:37:32;;;;;;;29.50;17.50;;;;;;;3.26;91.58;101904.19;5013110;28;20081;-79
2021/01/11 08:40:00;;;;;;;27.13;16.10;;;;;;;3.23;91.53;101900.53;5004509;28;20021;-79
2021/01/11 08:42:29;;;;;;;29.23;14.90;;;;;;;3.26;91.70;101900.78;5007798;28;20029;-78
2021/01/11 08:44:55;;;;;;;29.73;17.27;;;;;;;3.31;91.48;101895.22;5007225;28;20053;-79
2021/01/11 08:47:27;;;;;;;;;;;;;;;3.30;91.47;101895.13;5008374;28;20105;-79
2021/01/11 08:49:55;;;;;;;44.67;16.33;;;;;;;3.31;91.52;101902.84;5008151;28;19917;-78
2021/01/11 08:52:26;;;;;;;40.67;16.87;;;;;;;3.39;91.49;101900.84;5005279;28;20049;-78
2021/01/11 08:54:51;;;;;;;30.10;16.07;;;;;;;3.46;91.26;101895.41;5005776;28;20077;-78
2021/01/11 08:57:16;;;;;;;38.37;16.27;;;;;;;3.43;91.17;101897.72;5009390;28;20033;-77
2021/01/11 08:59:49;;;;;;;42.13;16.93;;;;;;;3.48;91.30;101898.03;5003051;28;20289;-79
2021/01/11 09:02:25;;;;;;;32.53;16.37;;;;;;;3.51;91.02;101898.25;5008564;28;20029;-78
2021/01/11 09:04:51;;;;;;;42.40;15.30;;;;;;;3.51;91.42;101904.22;5011802;28;20022;-78
2021/01/11 09:07:25;;;;;;;46.67;17.33;;;;;;;3.49;91.05;101899.81;5010921;28;20154;-79
2021/01/11 09:09:50;;;;;;;25.83;15.10;;;;;;;3.47;91.27;101906.44;5010438;28;20049;-78
2021/01/11 09:12:15;;;;;;;24.63;15.30;;;;;;;3.51;91.33;101904.22;5009495;28;20515;-79
2021/01/11 09:14:54;;;;;;;24.10;13.85;;;;;;;3.56;90.90;101907.06;5008815;28;20277;-78
2021/01/11 09:17:27;;;;;;;67.30;15.07;;;;;;;3.66;90.73;101902.75;5008210;28;20030;-79
2021/01/11 09:19:53;;;;;;;33.80;12.73;;;;;;;3.67;90.08;101903.63;5004958;28;20058;-79
2021/01/11 09:22:28;;;;;;;20.45;12.07;;;;;;;3.70;89.90;101902.16;5004772;28;20453;-78
2021/01/11 09:24:54;;;;;;;36.30;12.87;;;;;;;3.72;90.06;101902.25;5008455;28;20053;-79
2021/01/11 09:27:19;;;;;;;43.70;12.95;;;;;;;3.68;90.40;101901.19;5006230;28;20093;-78
2021/01/11 09:29:44;;;;;;;32.05;12.05;;;;;;;3.69;90.54;101908.03;5016005;28;20010;-78
2021/01/11 09:32:10;;;;;;;19.20;11.63;;;;;;;3.78;89.77;101906.88;5010074;28;20029;-78
2021/01/11 09:34:35;;;;;;;38.10;11.95;;;;;;;3.75;90.03;101903.34;5009939;28;20030;-78
2021/01/11 09:37:00;;;;;;;53.43;14.47;;;;;;;3.78;90.14;101914.50;5012670;28;20033;-78
2021/01/11 09:39:52;;;;;;;62.50;14.43;;;;;;;3.77;89.71;101912.75;5017829;28;20321;-78
2021/01/11 09:42:18;;;;;;;33.67;12.53;;;;;;;3.81;90.25;101909.63;5023367;28;20070;-80
2021/01/11 09:44:44;;;;;;;18.92;10.98;;;;;;;3.84;89.69;101902.19;5015615;28;20034;-80
2021/01/11 09:47:10;;;;;;;19.25;11.48;;;;;;;3.91;89.47;101912.03;5015278;28;20504;-79
2021/01/11 09:49:36;;;;;;;19.02;10.95;;;;;;;3.90;89.58;101903.53;5009097;28;20022;-78
2021/01/11 09:52:02;;;;;;;18.27;11.85;;;;;;;3.88;89.49;101904.16;5006063;28;20045;-79
2021/01/11 09:54:27;;;;;;;;;;;;;;;3.88;89.75;101896.53;5014452;28;20036;-79
2021/01/11 09:56:53;;;;;;;16.63;10.77;;;;;;;3.95;89.20;101906.38;5010428;28;19914;-80
2021/01/11 09:59:18;;;;;;;19.42;11.85;;;;;;;4.05;89.02;101898.56;5006901;28;20041;-79
2021/01/11 10:01:44;;;;;;;22.67;12.57;;;;;;;3.93;89.03;101895.22;5010684;28;20033;-80
2021/01/11 10:04:11;;;;;;;;;;;;;;;3.91;89.75;101895.13;5009193;28;20049;-79
2021/01/11 10:06:43;;;;;;;20.30;11.68;;;;;;;3.94;88.98;101896.97;5019972;28;19920;-81
2021/01/11 10:09:13;;;;;;;21.97;11.93;;;;;;;3.99;88.78;101901.59;5008603;28;20022;-80
2021/01/11 10:11:39;;;;;;;19.73;12.13;;;;;;;3.92;89.33;101904.50;5014439;28;20015;-81
2021/01/11 10:14:07;;;;;;;19.02;11.52;;;;;;;4.02;89.22;101901.78;5015292;28;20052;-79
2021/01/11 10:16:33;;;;;;;21.03;12.27;;;;;;;3.92;89.50;101904.50;5014070;28;20034;-80
2021/01/11 10:18:58;;;;;;;17.70;11.38;;;;;;;3.94;89.00;101902.06;5009960;28;20086;-81
2021/01/11 10:21:25;;;;;;;18.53;11.47;;;;;;;3.90;89.16;101893.34;5017678;28;20050;-81
2021/01/11 10:23:50;;;;;;;19.30;12.03;;;;;;;3.89;89.34;101888.13;5037566;23;20316;-76
2021/01/11 10:26:18;;;;;;;20.40;11.43;;;;;;;3.97;88.86;101887.91;5021299;28;20480;-76
2021/01/11 10:28:44;;;;;;;16.03;10.77;;;;;;;4.01;88.60;101876.25;5020911;28;20029;-76
2021/01/11 10:31:09;;;;;;;19.80;12.32;;;;;;;4.07;89.39;101874.13;5020127;28;20030;-77
2021/01/11 10:33:34;;;;;;;18.20;12.25;;;;;;;4.03;89.11;101872.16;5023549;28;20451;-76
2021/01/11 10:36:00;;;;;;;20.23;12.23;;;;;;;4.11;89.33;101863.38;5022330;28;20060;-76
2021/01/11 10:38:25;;;;;;;16.48;10.00;;;;;;;4.20;88.47;101861.41;5025074;28;20029;-77
2021/01/11 10:40:50;;;;;;;18.30;10.27;;;;;;;4.22;88.37;101854.78;5023523;28;20025;-75
2021/01/11 10:43:15;;;;;;;18.07;10.53;;;;;;;4.25;88.53;101857.53;5022676;28;20276;-75
2021/01/11 10:45:41;;;;;;;19.03;9.30;;;;;;;4.22;88.11;101849.69;5024109;28;20061;-76
2021/01/11 10:48:06;;;;;;;14.47;9.27;;;;;;;4.31;88.07;101839.25;5022666;28;20276;-76
2021/01/11 10:50:32;;;;;;;16.30;9.05;;;;;;;4.31;88.22;101832.50;5023908;28;20296;-77
2021/01/11 10:52:57;;;;;;;18.13;9.35;;;;;;;4.35;87.39;101831.91;5023877;28;20032;-77
2021/01/11 10:55:23;;;;;;;15.30;9.73;;;;;;;4.44;87.79;101831.63;5023564;28;20043;-77
2021/01/11 10:57:48;;;;;;;15.43;9.15;;;;;;;4.37;87.83;101825.25;5021043;28;20029;-78
2021/01/11 11:00:16;;;;;;;14.93;8.82;;;;;;;4.42;87.88;101819.59;5024184;28;20381;-76
2021/01/11 11:02:44;;;;;;;16.50;8.83;;;;;;;4.34;88.12;101814.88;5021608;28;20048;-79
2021/01/11 11:05:15;;;;;;;16.73;9.70;;;;;;;4.38;87.63;101813.41;5023988;28;20036;-78
2021/01/11 11:07:41;;;;;;;21.73;10.70;;;;;;;4.37;88.08;101804.03;5022892;28;20445;-78
2021/01/11 11:10:08;;;;;;;15.38;10.13;;;;;;;4.29;88.78;101801.00;5021325;28;20034;-77
2021/01/11 11:12:36;;;;;;;15.20;9.17;;;;;;;4.33;88.32;101805.50;5021277;28;20602;-77
2021/01/11 11:15:02;;;;;;;20.00;10.13;;;;;;;4.27;88.67;101797.47;5021093;28;20125;-77
2021/01/11 11:17:31;;;;;;;;;;;;;;;4.33;88.58;101790.25;5023353;28;20021;-77
2021/01/11 11:19:57;;;;;;;16.43;9.37;;;;;;;4.36;88.09;101787.88;5022493;28;19913;-78
2021/01/11 11:22:22;;;;;;;16.57;9.70;;;;;;;4.42;87.91;101782.31;5021842;28;20424;-78
2021/01/11 11:24:48;;;;;;;22.25;9.02;;;;;;;4.50;87.17;101775.16;5022704;28;20075;-77
2021/01/11 11:27:14;;;;;;;14.75;8.50;;;;;;;4.57;86.28;101778.19;5024936;28;20083;-77